createdAt,value
2022-08-02T00:00:56.057Z,21.07
2022-08-02T00:01:57.824Z,21.04
2022-08-02T00:02:59.422Z,21.04
2022-08-02T00:04:00.981Z,21.03
2022-08-02T00:05:02.584Z,21.03
2022-08-02T00:06:04.123Z,21.10
2022-08-02T00:07:05.912Z,21.06
2022-08-02T00:08:07.576Z,21.02
2022-08-02T00:09:09.120Z,21.02
2022-08-02T00:10:11.968Z,21.00
2022-08-02T00:11:13.450Z,20.99
2022-08-02T00:12:15.003Z,20.99
2022-08-02T00:13:16.582Z,20.99
2022-08-02T00:14:18.105Z,20.96
2022-08-02T00:15:19.721Z,20.93
2022-08-02T00:16:21.300Z,20.94
2022-08-02T00:17:39.507Z,20.96
2022-08-02T00:18:41.227Z,20.96
2022-08-02T00:19:42.850Z,20.92
2022-08-02T00:20:44.381Z,20.90
2022-08-02T00:21:45.966Z,20.90
2022-08-02T00:22:47.544Z,20.89
2022-08-02T00:24:28.526Z,20.93
2022-08-02T00:25:10.650Z,20.96
2022-08-02T00:26:12.191Z,20.98
2022-08-02T00:27:13.842Z,20.94
2022-08-02T00:28:15.506Z,20.88
2022-08-02T00:29:17.122Z,20.88
2022-08-02T00:30:18.599Z,20.87
2022-08-02T00:31:20.192Z,20.84
2022-08-02T00:32:22.681Z,20.84
2022-08-02T00:34:27.638Z,20.86
2022-08-02T00:34:46.377Z,20.84
2022-08-02T00:35:47.899Z,20.84
2022-08-02T00:36:50.521Z,20.81
2022-08-02T00:37:52.024Z,20.80
2022-08-02T00:38:53.677Z,20.78
2022-08-02T00:39:55.114Z,20.76
2022-08-02T00:40:58.213Z,20.74
2022-08-02T00:41:59.999Z,20.71
2022-08-02T00:43:05.809Z,20.79
2022-08-02T00:44:07.322Z,20.78
2022-08-02T00:45:09.229Z,20.73
2022-08-02T00:46:10.925Z,20.72
2022-08-02T00:47:13.934Z,20.67
2022-08-02T00:48:21.413Z,20.77
2022-08-02T00:49:23.014Z,20.71
2022-08-02T00:50:26.436Z,20.69
2022-08-02T00:51:28.005Z,20.65
2022-08-02T00:52:29.549Z,20.62
2022-08-02T00:53:32.118Z,20.62
2022-08-02T00:54:33.786Z,20.62
2022-08-02T00:55:36.880Z,20.60
2022-08-02T00:56:38.411Z,20.59
2022-08-02T00:57:50.911Z,20.57
2022-08-02T00:58:52.514Z,20.57
2022-08-02T00:59:53.991Z,20.62
2022-08-02T01:00:56.138Z,20.58
2022-08-02T01:01:58.408Z,20.55
2022-08-02T01:03:00.058Z,20.54
2022-08-02T01:04:01.654Z,20.57
2022-08-02T01:05:04.151Z,20.60
2022-08-02T01:06:13.106Z,20.57
2022-08-02T01:07:14.706Z,20.57
2022-08-02T01:08:16.357Z,20.52
2022-08-02T01:09:18.275Z,20.54
2022-08-02T01:10:19.800Z,20.58
2022-08-02T01:11:21.263Z,20.56
2022-08-02T01:12:22.891Z,20.52
2022-08-02T01:13:25.416Z,20.52
2022-08-02T01:14:27.223Z,20.46
2022-08-02T01:15:35.929Z,20.46
2022-08-02T01:17:03.549Z,20.44
2022-08-02T01:18:23.318Z,20.40
2022-08-02T01:19:54.107Z,20.41
2022-08-02T01:21:23.523Z,20.41
2022-08-02T01:23:02.863Z,20.39
2022-08-02T01:24:45.429Z,20.39
2022-08-02T01:25:58.750Z,20.36
2022-08-02T01:27:26.139Z,20.37
2022-08-02T01:28:54.039Z,20.38
2022-08-02T01:30:00.781Z,20.43
2022-08-02T01:31:18.414Z,20.45
2022-08-02T01:32:25.468Z,20.45
2022-08-02T01:33:32.432Z,20.39
2022-08-02T01:34:39.727Z,20.38
2022-08-02T01:35:47.265Z,20.37
2022-08-02T01:36:58.877Z,20.37
2022-08-02T01:38:20.063Z,20.34
2022-08-02T01:39:27.617Z,20.31
2022-08-02T01:40:37.375Z,20.32
2022-08-02T01:41:41.047Z,20.31
2022-08-02T01:42:53.680Z,20.31
2022-08-02T01:43:58.824Z,20.31
2022-08-02T01:45:03.230Z,20.29
2022-08-02T01:46:05.184Z,20.30
2022-08-02T01:47:10.707Z,20.30
2022-08-02T01:48:14.847Z,20.28
2022-08-02T01:49:20.220Z,20.29
2022-08-02T01:50:27.131Z,20.28
2022-08-02T01:51:29.202Z,20.27
2022-08-02T01:52:41.526Z,20.28
2022-08-02T01:53:55.343Z,20.26
2022-08-02T01:55:02.584Z,20.25
2022-08-02T01:56:07.188Z,20.28
2022-08-02T01:57:11.948Z,20.27
2022-08-02T01:58:19.189Z,20.25
2022-08-02T01:59:22.469Z,20.28
2022-08-02T02:00:26.405Z,20.26
2022-08-02T02:01:28.439Z,20.22
2022-08-02T02:02:37.511Z,20.30
2022-08-02T02:03:41.800Z,20.28
2022-08-02T02:04:46.634Z,20.25
2022-08-02T02:05:50.355Z,20.23
2022-08-02T02:06:54.088Z,20.20
2022-08-02T02:07:58.333Z,20.18
2022-08-02T02:09:00.545Z,20.19
2022-08-02T02:10:03.419Z,20.18
2022-08-02T02:12:06.428Z,20.23
2022-08-02T02:12:31.537Z,20.25
2022-08-02T02:13:34.607Z,20.17
2022-08-02T02:14:37.155Z,20.16
2022-08-02T02:15:46.243Z,20.14
2022-08-02T02:16:48.226Z,20.11
2022-08-02T02:18:13.138Z,20.07
2022-08-02T02:19:21.131Z,20.07
2022-08-02T02:20:23.899Z,20.13
2022-08-02T02:21:25.457Z,20.09
2022-08-02T02:22:27.160Z,20.11
2022-08-02T02:23:32.136Z,20.08
2022-08-02T02:24:37.167Z,20.09
2022-08-02T02:25:46.597Z,20.06
2022-08-02T02:26:52.460Z,20.05
2022-08-02T02:28:04.967Z,20.07
2022-08-02T02:29:07.527Z,20.05
2022-08-02T02:30:09.857Z,20.03
2022-08-02T02:31:14.259Z,20.04
2022-08-02T02:32:17.798Z,20.01
2022-08-02T02:33:26.340Z,20.00
2022-08-02T02:34:35.543Z,20.01
2022-08-02T02:35:38.327Z,20.01
2022-08-02T02:36:42.122Z,20.01
2022-08-02T02:37:45.620Z,20.00
2022-08-02T02:38:48.271Z,19.98
2022-08-02T02:39:51.767Z,19.96
2022-08-02T02:40:56.481Z,19.93
2022-08-02T02:42:01.859Z,19.94
2022-08-02T02:43:05.841Z,19.93
2022-08-02T02:44:11.183Z,19.91
2022-08-02T02:45:13.938Z,19.89
2022-08-02T02:46:18.136Z,19.92
2022-08-02T02:47:21.474Z,19.95
2022-08-02T02:48:24.103Z,19.95
2022-08-02T02:49:27.457Z,19.94
2022-08-02T02:50:30.467Z,19.92
2022-08-02T02:51:33.375Z,19.91
2022-08-02T02:52:36.360Z,19.88
2022-08-02T02:54:30.653Z,19.86
2022-08-02T02:55:00.856Z,19.84
2022-08-02T02:56:02.914Z,19.85
2022-08-02T02:57:06.238Z,19.84
2022-08-02T02:58:07.970Z,19.83
2022-08-02T02:59:12.764Z,19.82
2022-08-02T03:00:14.969Z,19.84
2022-08-02T03:01:16.929Z,19.84
2022-08-02T03:02:19.625Z,19.79
2022-08-02T03:03:22.048Z,19.81
2022-08-02T03:04:26.936Z,19.82
2022-08-02T03:05:28.562Z,19.81
2022-08-02T03:06:30.657Z,19.80
2022-08-02T03:07:33.565Z,19.79
2022-08-02T03:08:35.261Z,19.80
2022-08-02T03:09:38.434Z,19.79
2022-08-02T03:10:40.319Z,19.78
2022-08-02T03:11:43.476Z,19.76
2022-08-02T03:12:44.996Z,19.74
2022-08-02T03:13:46.919Z,19.75
2022-08-02T03:14:49.317Z,19.74
2022-08-02T03:15:52.684Z,19.73
2022-08-02T03:16:54.465Z,19.75
2022-08-02T03:17:55.951Z,19.75
2022-08-02T03:18:58.361Z,19.75
2022-08-02T03:19:59.887Z,19.76
2022-08-02T03:21:13.198Z,19.74
2022-08-02T03:22:15.338Z,19.73
2022-08-02T03:23:16.812Z,19.71
2022-08-02T03:24:27.608Z,19.68
2022-08-02T03:25:30.112Z,19.67
2022-08-02T03:26:31.683Z,19.64
2022-08-02T03:27:33.211Z,19.60
2022-08-02T03:28:34.861Z,19.62
2022-08-02T03:29:36.383Z,19.63
2022-08-02T03:30:37.968Z,19.61
2022-08-02T03:31:41.759Z,19.59
2022-08-02T03:32:46.034Z,19.59
2022-08-02T03:33:47.728Z,19.58
2022-08-02T03:34:49.241Z,19.57
2022-08-02T03:35:52.624Z,19.56
2022-08-02T03:36:57.241Z,19.52
2022-08-02T03:37:59.975Z,19.55
2022-08-02T03:39:02.337Z,19.54
2022-08-02T03:40:07.508Z,19.51
2022-08-02T03:41:10.941Z,19.50
2022-08-02T03:42:15.394Z,19.49
2022-08-02T03:43:17.783Z,19.48
2022-08-02T03:44:19.824Z,19.44
2022-08-02T03:45:22.880Z,19.45
2022-08-02T03:46:25.854Z,19.45
2022-08-02T03:47:28.701Z,19.35
2022-08-02T03:48:34.845Z,19.42
2022-08-02T03:49:37.619Z,19.41
2022-08-02T03:50:40.563Z,19.38
2022-08-02T03:51:42.541Z,19.39
2022-08-02T03:52:45.140Z,19.38
2022-08-02T03:53:48.677Z,19.37
2022-08-02T03:54:50.474Z,19.35
2022-08-02T03:55:55.589Z,19.35
2022-08-02T03:56:57.751Z,19.36
2022-08-02T03:57:59.437Z,19.36
2022-08-02T03:59:12.157Z,19.36
2022-08-02T04:00:22.988Z,19.35
2022-08-02T04:01:24.553Z,19.33
2022-08-02T04:02:26.106Z,19.37
2022-08-02T04:03:27.927Z,19.37
2022-08-02T04:04:29.466Z,19.37
2022-08-02T04:05:31.002Z,19.38
2022-08-02T04:06:32.695Z,19.40
2022-08-02T04:08:33.043Z,19.42
2022-08-02T04:08:55.777Z,19.41
2022-08-02T04:09:57.348Z,19.41
2022-08-02T04:10:59.128Z,19.42
2022-08-02T04:12:00.661Z,19.47
2022-08-02T04:13:02.202Z,19.47
2022-08-02T04:14:08.143Z,19.51
2022-08-02T04:15:14.756Z,19.53
2022-08-02T04:16:21.514Z,19.54
2022-08-02T04:17:23.963Z,19.58
2022-08-02T04:18:30.226Z,19.61
2022-08-02T04:19:37.826Z,19.60
2022-08-02T04:20:39.767Z,19.63
2022-08-02T04:21:51.517Z,19.67
2022-08-02T04:23:00.397Z,19.68
2022-08-02T04:24:04.412Z,19.69
2022-08-02T04:25:09.531Z,19.74
2022-08-02T04:26:26.867Z,19.71
2022-08-02T04:28:15.523Z,19.75
2022-08-02T04:28:54.309Z,19.78
2022-08-02T04:29:57.735Z,19.81
2022-08-02T04:31:00.328Z,19.89
2022-08-02T04:32:04.718Z,19.91
2022-08-02T04:33:07.670Z,19.98
2022-08-02T04:34:14.413Z,20.02
2022-08-02T04:35:19.544Z,20.07
2022-08-02T04:36:31.028Z,20.14
2022-08-02T04:37:33.843Z,20.17
2022-08-02T04:38:35.410Z,20.20
2022-08-02T04:39:37.053Z,20.27
2022-08-02T04:40:38.849Z,20.33
2022-08-02T04:41:44.646Z,20.41
2022-08-02T04:42:46.179Z,20.48
2022-08-02T04:43:47.828Z,20.59
2022-08-02T04:44:50.182Z,20.69
2022-08-02T04:45:53.695Z,20.81
2022-08-02T04:46:55.268Z,20.98
2022-08-02T04:48:04.570Z,21.37
2022-08-02T04:49:06.919Z,21.89
2022-08-02T04:50:08.916Z,22.34
2022-08-02T04:51:10.439Z,22.72
2022-08-02T04:52:12.362Z,23.18
2022-08-02T04:53:14.353Z,23.56
2022-08-02T04:54:15.843Z,23.78
2022-08-02T04:55:17.577Z,23.91
2022-08-02T04:56:21.375Z,24.11
2022-08-02T04:57:23.225Z,24.27
2022-08-02T04:58:39.787Z,24.49
2022-08-02T04:59:42.153Z,24.68
2022-08-02T05:00:44.226Z,25.16
2022-08-02T05:01:45.773Z,25.57
2022-08-02T05:02:47.785Z,25.96
2022-08-02T05:03:49.604Z,26.22
2022-08-02T05:04:51.091Z,26.51
2022-08-02T05:05:52.703Z,26.69
2022-08-02T05:06:54.479Z,26.94
2022-08-02T05:07:56.350Z,26.78
2022-08-02T05:08:58.078Z,26.77
2022-08-02T05:09:59.577Z,26.78
2022-08-02T05:11:01.121Z,26.93
2022-08-02T05:12:02.765Z,26.91
2022-08-02T05:13:05.587Z,27.01
2022-08-02T05:14:07.106Z,27.05
2022-08-02T05:15:12.730Z,27.01
2022-08-02T05:16:14.735Z,26.96
2022-08-02T05:17:16.287Z,27.16
2022-08-02T05:18:18.251Z,27.04
2022-08-02T05:19:19.824Z,26.89
2022-08-02T05:20:21.369Z,26.73
2022-08-02T05:21:22.852Z,26.29
2022-08-02T05:22:24.470Z,26.24
2022-08-02T05:23:26.269Z,26.18
2022-08-02T05:24:27.806Z,26.33
2022-08-02T05:25:29.370Z,26.50
2022-08-02T05:26:31.016Z,26.55
2022-08-02T05:27:32.520Z,26.59
2022-08-02T05:28:34.162Z,26.45
2022-08-02T05:29:38.172Z,26.66
2022-08-02T05:30:40.342Z,26.66
2022-08-02T05:31:41.987Z,26.53
2022-08-02T05:32:48.930Z,26.55
2022-08-02T05:33:50.657Z,26.43
2022-08-02T05:34:52.293Z,26.56
2022-08-02T05:35:53.862Z,26.74
2022-08-02T05:36:55.363Z,26.58
2022-08-02T05:37:57.206Z,26.59
2022-08-02T05:39:01.835Z,26.30
2022-08-02T05:40:09.315Z,26.58
2022-08-02T05:41:14.797Z,26.65
2022-08-02T05:42:16.340Z,26.97
2022-08-02T05:43:17.902Z,27.35
2022-08-02T05:44:22.481Z,28.20
2022-08-02T05:45:24.110Z,28.90
2022-08-02T05:46:25.654Z,29.48
2022-08-02T05:47:27.314Z,29.80
2022-08-02T05:48:31.890Z,30.25
2022-08-02T05:49:34.019Z,30.53
2022-08-02T05:50:39.749Z,30.61
2022-08-02T05:52:01.421Z,30.65
2022-08-02T05:53:29.289Z,31.04
2022-08-02T05:55:04.521Z,31.82
2022-08-02T05:56:24.250Z,31.98
2022-08-02T05:58:11.546Z,32.18
2022-08-02T05:59:44.739Z,32.71
2022-08-02T06:00:49.883Z,33.22
2022-08-02T06:01:57.302Z,33.19
2022-08-02T06:03:13.595Z,33.56
2022-08-02T06:04:26.539Z,33.46
2022-08-02T06:05:32.631Z,32.94
2022-08-02T06:06:35.122Z,33.05
2022-08-02T06:07:37.785Z,32.89
2022-08-02T06:08:47.604Z,32.95
2022-08-02T06:09:51.079Z,32.95
2022-08-02T06:10:56.806Z,32.95
2022-08-02T06:12:00.749Z,33.14
2022-08-02T06:13:14.909Z,32.87
2022-08-02T06:14:17.930Z,32.81
2022-08-02T06:15:20.285Z,32.57
2022-08-02T06:16:32.271Z,32.94
2022-08-02T06:17:34.729Z,33.40
2022-08-02T06:18:43.621Z,33.27
2022-08-02T06:19:51.516Z,33.53
2022-08-02T06:20:55.634Z,33.42
2022-08-02T06:22:32.244Z,33.05
2022-08-02T06:23:21.205Z,33.08
2022-08-02T06:24:26.034Z,33.26
2022-08-02T06:25:51.212Z,33.24
2022-08-02T06:26:51.817Z,33.04
2022-08-02T06:27:53.919Z,32.84
2022-08-02T06:28:57.542Z,32.90
2022-08-02T06:29:59.983Z,33.19
2022-08-02T06:31:01.848Z,33.26
2022-08-02T06:32:03.894Z,33.53
2022-08-02T06:33:06.018Z,33.74
2022-08-02T06:34:07.798Z,34.04
2022-08-02T06:35:09.491Z,34.31
2022-08-02T06:36:29.361Z,34.57
2022-08-02T06:37:58.890Z,34.60
2022-08-02T06:39:08.384Z,34.71
2022-08-02T06:40:25.231Z,35.16
2022-08-02T06:41:30.994Z,34.95
2022-08-02T06:43:07.777Z,35.07
2022-08-02T06:44:45.239Z,35.47
2022-08-02T06:45:33.188Z,35.36
2022-08-02T06:47:09.811Z,35.60
2022-08-02T06:47:57.093Z,35.52
2022-08-02T06:48:59.942Z,35.76
2022-08-02T06:50:01.670Z,36.17
2022-08-02T06:51:04.518Z,36.25
2022-08-02T06:52:06.147Z,36.04
2022-08-02T06:53:09.229Z,35.72
2022-08-02T06:54:10.812Z,35.73
2022-08-02T06:55:12.357Z,35.92
2022-08-02T06:56:14.439Z,36.10
2022-08-02T06:57:15.954Z,36.12
2022-08-02T06:58:17.536Z,36.43
2022-08-02T06:59:19.119Z,36.44
2022-08-02T07:00:20.613Z,36.65
2022-08-02T07:01:22.350Z,36.30
2022-08-02T07:02:24.218Z,36.15
2022-08-02T07:03:25.763Z,36.12
2022-08-02T07:04:27.326Z,36.25
2022-08-02T07:05:28.890Z,36.35
2022-08-02T07:06:30.848Z,36.06
2022-08-02T07:07:32.724Z,35.98
2022-08-02T07:08:34.663Z,36.03
2022-08-02T07:09:36.314Z,36.21
2022-08-02T07:10:37.845Z,36.37
2022-08-02T07:11:39.388Z,35.71
2022-08-02T07:12:40.987Z,35.29
2022-08-02T07:13:42.492Z,35.84
2022-08-02T07:14:44.015Z,36.25
2022-08-02T07:15:49.045Z,36.38
2022-08-02T07:16:51.157Z,36.76
2022-08-02T07:17:52.659Z,37.23
2022-08-02T07:18:54.163Z,37.42
2022-08-02T07:19:56.286Z,37.65
2022-08-02T07:20:58.004Z,38.00
2022-08-02T07:22:11.044Z,38.18
2022-08-02T07:23:13.608Z,38.81
2022-08-02T07:24:15.102Z,38.46
2022-08-02T07:25:16.822Z,38.37
2022-08-02T07:26:18.393Z,38.55
2022-08-02T07:27:21.306Z,37.97
2022-08-02T07:28:24.716Z,37.55
2022-08-02T07:29:27.185Z,36.95
2022-08-02T07:30:34.289Z,36.69
2022-08-02T07:31:35.876Z,35.39
2022-08-02T07:32:37.635Z,35.48
2022-08-02T07:33:41.542Z,35.66
2022-08-02T07:34:51.028Z,35.70
2022-08-02T07:35:55.100Z,35.70
2022-08-02T07:36:56.782Z,35.16
2022-08-02T07:38:02.020Z,35.05
2022-08-02T07:39:04.627Z,34.64
2022-08-02T07:40:12.519Z,34.38
2022-08-02T07:41:15.359Z,34.00
2022-08-02T07:42:16.899Z,33.50
2022-08-02T07:43:18.389Z,33.23
2022-08-02T07:44:19.935Z,32.83
2022-08-02T07:45:22.929Z,32.70
2022-08-02T07:46:24.518Z,32.32
2022-08-02T07:47:26.157Z,31.94
2022-08-02T07:48:27.931Z,31.60
2022-08-02T07:49:30.377Z,31.08
2022-08-02T07:50:31.902Z,30.67
2022-08-02T07:51:33.734Z,30.58
2022-08-02T07:52:36.364Z,30.27
2022-08-02T07:53:51.292Z,29.68
2022-08-02T07:54:59.535Z,29.59
2022-08-02T07:56:01.115Z,29.54
2022-08-02T07:57:03.919Z,29.04
2022-08-02T07:58:05.480Z,28.83
2022-08-02T07:59:07.066Z,28.86
2022-08-02T08:00:09.203Z,28.48
2022-08-02T08:01:13.477Z,28.42
2022-08-02T08:02:15.107Z,28.22
2022-08-02T08:03:16.610Z,28.34
2022-08-02T08:04:18.805Z,28.16
2022-08-02T08:05:20.429Z,28.31
2022-08-02T08:06:28.670Z,28.13
2022-08-02T08:07:30.832Z,28.34
2022-08-02T08:08:34.649Z,28.32
2022-08-02T08:09:36.286Z,28.33
2022-08-02T08:10:40.317Z,28.34
2022-08-02T08:11:41.842Z,28.15
2022-08-02T08:12:43.408Z,28.05
2022-08-02T08:13:44.987Z,27.79
2022-08-02T08:14:46.527Z,27.94
2022-08-02T08:15:52.137Z,28.01
2022-08-02T08:16:54.138Z,27.97
2022-08-02T08:17:55.705Z,28.01
2022-08-02T08:18:57.337Z,28.02
2022-08-02T08:19:58.894Z,28.13
2022-08-02T08:21:00.394Z,27.82
2022-08-02T08:22:02.535Z,27.72
2022-08-02T08:23:04.160Z,27.78
2022-08-02T08:24:06.073Z,27.77
2022-08-02T08:25:07.902Z,27.89
2022-08-02T08:26:13.929Z,28.03
2022-08-02T08:27:17.556Z,27.90
2022-08-02T08:28:19.090Z,27.82
2022-08-02T08:29:21.175Z,27.53
2022-08-02T08:30:22.872Z,27.37
2022-08-02T08:31:24.411Z,27.30
2022-08-02T08:32:26.065Z,27.20
2022-08-02T08:33:27.814Z,27.10
2022-08-02T08:34:29.399Z,27.07
2022-08-02T08:35:30.956Z,27.13
2022-08-02T08:36:32.618Z,27.22
2022-08-02T08:37:35.575Z,27.36
2022-08-02T08:38:37.138Z,27.32
2022-08-02T08:39:53.784Z,27.42
2022-08-02T08:40:59.321Z,27.31
2022-08-02T08:42:01.172Z,27.14
2022-08-02T08:43:03.321Z,27.15
2022-08-02T08:44:05.070Z,27.19
2022-08-02T08:45:07.791Z,27.03
2022-08-02T08:46:11.841Z,26.90
2022-08-02T08:47:13.750Z,27.00
2022-08-02T08:48:25.670Z,27.09
2022-08-02T08:49:39.950Z,27.20
2022-08-02T08:51:04.458Z,27.13
2022-08-02T08:52:06.678Z,27.16
2022-08-02T08:53:09.228Z,26.96
2022-08-02T08:54:16.717Z,26.95
2022-08-02T08:55:22.374Z,27.02
2022-08-02T08:56:24.129Z,27.00
2022-08-02T08:57:27.086Z,26.95
2022-08-02T08:58:28.713Z,26.95
2022-08-02T08:59:30.227Z,27.02
2022-08-02T09:00:40.961Z,27.07
2022-08-02T09:01:49.645Z,27.15
2022-08-02T09:02:51.991Z,27.26
2022-08-02T09:03:53.529Z,27.20
2022-08-02T09:04:55.611Z,27.18
2022-08-02T09:05:58.383Z,27.20
2022-08-02T09:06:59.943Z,27.32
2022-08-02T09:08:01.655Z,27.33
2022-08-02T09:09:03.212Z,27.36
2022-08-02T09:10:31.631Z,27.41
2022-08-02T09:11:33.359Z,27.35
2022-08-02T09:12:34.854Z,27.57
2022-08-02T09:13:45.345Z,27.57
2022-08-02T09:14:50.082Z,27.62
2022-08-02T09:15:58.311Z,27.64
2022-08-02T09:17:08.480Z,27.71
2022-08-02T09:18:10.607Z,27.73
2022-08-02T09:19:17.871Z,27.82
2022-08-02T09:20:19.402Z,27.96
2022-08-02T09:21:21.091Z,27.98
2022-08-02T09:22:22.592Z,27.89
2022-08-02T09:23:25.273Z,27.98
2022-08-02T09:24:26.982Z,27.90
2022-08-02T09:25:33.685Z,27.76
2022-08-02T09:26:36.569Z,27.79
2022-08-02T09:27:39.438Z,27.80
2022-08-02T09:28:43.353Z,27.78
2022-08-02T09:30:13.179Z,27.81
2022-08-02T09:31:17.743Z,27.85
2022-08-02T09:32:19.646Z,27.96
2022-08-02T09:33:28.256Z,27.88
2022-08-02T09:34:44.703Z,27.97
2022-08-02T09:36:06.690Z,27.92
2022-08-02T09:37:22.207Z,27.88
2022-08-02T09:38:24.641Z,27.97
2022-08-02T09:39:44.068Z,28.06
2022-08-02T09:40:49.257Z,28.24
2022-08-02T09:41:50.932Z,28.31
2022-08-02T09:42:59.284Z,28.40
2022-08-02T09:44:06.546Z,28.44
2022-08-02T09:45:09.460Z,28.46
2022-08-02T09:46:22.951Z,28.37
2022-08-02T09:47:27.831Z,28.28
2022-08-02T09:48:32.477Z,28.17
2022-08-02T09:49:34.053Z,28.27
2022-08-02T09:50:40.169Z,28.21
2022-08-02T09:51:51.681Z,28.31
2022-08-02T09:52:55.517Z,28.39
2022-08-02T09:54:08.760Z,28.23
2022-08-02T09:55:11.530Z,28.39
2022-08-02T09:56:29.655Z,28.45
2022-08-02T09:57:34.756Z,28.51
2022-08-02T09:58:40.277Z,28.38
2022-08-02T09:59:52.646Z,28.32
2022-08-02T10:00:58.137Z,28.20
2022-08-02T10:02:02.222Z,27.95
2022-08-02T10:03:11.126Z,27.66
2022-08-02T10:04:25.715Z,27.74
2022-08-02T10:05:30.179Z,27.70
2022-08-02T10:06:36.741Z,27.82
2022-08-02T10:07:38.688Z,27.86
2022-08-02T10:08:40.335Z,27.97
2022-08-02T10:09:46.438Z,27.92
2022-08-02T10:10:49.328Z,28.01
2022-08-02T10:11:51.670Z,28.02
2022-08-02T10:12:53.361Z,28.06
2022-08-02T10:13:55.856Z,27.98
2022-08-02T10:14:59.178Z,27.90
2022-08-02T10:16:01.740Z,27.94
2022-08-02T10:17:03.883Z,27.89
2022-08-02T10:18:28.740Z,28.10
2022-08-02T10:20:00.175Z,28.16
2022-08-02T10:20:50.916Z,28.24
2022-08-02T10:21:58.049Z,28.47
2022-08-02T10:23:01.717Z,28.48
2022-08-02T10:24:07.513Z,28.52
2022-08-02T10:25:09.893Z,28.54
2022-08-02T10:26:18.841Z,28.55
2022-08-02T10:27:21.162Z,28.52
2022-08-02T10:28:27.371Z,28.51
2022-08-02T10:29:43.934Z,28.52
2022-08-02T10:30:57.539Z,28.60
2022-08-02T10:32:06.123Z,28.72
2022-08-02T10:33:10.201Z,28.81
2022-08-02T10:34:16.316Z,28.90
2022-08-02T10:35:25.356Z,29.04
2022-08-02T10:36:32.224Z,29.06
2022-08-02T10:37:36.580Z,28.85
2022-08-02T10:38:38.429Z,28.62
2022-08-02T10:39:49.118Z,28.35
2022-08-02T10:40:55.421Z,28.21
2022-08-02T10:41:57.657Z,28.11
2022-08-02T10:43:00.930Z,28.07
2022-08-02T10:44:02.858Z,28.03
2022-08-02T10:45:15.666Z,28.02
2022-08-02T10:46:25.236Z,28.13
2022-08-02T10:47:26.693Z,28.19
2022-08-02T10:48:28.315Z,28.11
2022-08-02T10:49:39.735Z,28.20
2022-08-02T10:50:47.761Z,28.32
2022-08-02T10:51:51.985Z,28.27
2022-08-02T10:53:19.146Z,28.29
2022-08-02T10:54:25.905Z,28.24
2022-08-02T10:55:27.394Z,28.28
2022-08-02T10:56:46.254Z,28.22
2022-08-02T10:57:49.918Z,28.06
2022-08-02T10:59:32.307Z,28.11
2022-08-02T11:00:33.957Z,28.08
2022-08-02T11:01:43.763Z,28.11
2022-08-02T11:02:53.066Z,28.17
2022-08-02T11:03:59.308Z,28.31
2022-08-02T11:05:04.065Z,28.39
2022-08-02T11:06:25.045Z,28.54
2022-08-02T11:07:47.608Z,28.77
2022-08-02T11:08:51.025Z,28.99
2022-08-02T11:09:52.684Z,29.03
2022-08-02T11:11:15.092Z,29.22
2022-08-02T11:12:20.149Z,29.38
2022-08-02T11:13:22.013Z,29.62
2022-08-02T11:14:23.581Z,29.68
2022-08-02T11:15:25.268Z,29.73
2022-08-02T11:16:57.440Z,30.01
2022-08-02T11:17:59.270Z,29.99
2022-08-02T11:19:00.744Z,29.93
2022-08-02T11:20:08.484Z,29.98
2022-08-02T11:21:26.009Z,30.03
2022-08-02T11:22:27.553Z,29.99
2022-08-02T11:23:44.102Z,29.82
2022-08-02T11:24:47.489Z,29.87
2022-08-02T11:26:11.061Z,29.89
2022-08-02T11:27:21.619Z,30.00
2022-08-02T11:28:25.212Z,29.97
2022-08-02T11:29:40.951Z,30.05
2022-08-02T11:30:42.512Z,29.92
2022-08-02T11:31:47.082Z,29.87
2022-08-02T11:32:49.251Z,29.88
2022-08-02T11:33:51.722Z,29.92
2022-08-02T11:34:54.503Z,29.92
2022-08-02T11:36:05.158Z,29.78
2022-08-02T11:37:06.751Z,29.65
2022-08-02T11:38:19.611Z,29.60
2022-08-02T11:39:22.664Z,29.62
2022-08-02T11:40:24.254Z,29.62
2022-08-02T11:41:46.013Z,29.83
2022-08-02T11:42:48.611Z,29.78
2022-08-02T11:43:56.538Z,29.99
2022-08-02T11:44:58.207Z,30.21
2022-08-02T11:46:13.501Z,30.41
2022-08-02T11:47:15.208Z,30.52
2022-08-02T11:48:33.746Z,30.64
2022-08-02T11:49:36.921Z,30.87
2022-08-02T11:50:38.670Z,30.80
2022-08-02T11:51:54.498Z,31.00
2022-08-02T11:52:56.129Z,31.09
2022-08-02T11:53:57.648Z,31.23
2022-08-02T11:54:59.148Z,31.35
2022-08-02T11:56:00.859Z,31.21
2022-08-02T11:57:21.799Z,31.11
2022-08-02T11:58:23.369Z,31.13
2022-08-02T11:59:24.867Z,31.28
2022-08-02T12:00:27.003Z,31.17
2022-08-02T12:01:36.907Z,31.32
2022-08-02T12:02:48.289Z,31.62
2022-08-02T12:03:50.238Z,31.74
2022-08-02T12:05:05.298Z,31.74
2022-08-02T12:06:16.339Z,31.99
2022-08-02T12:07:18.561Z,32.07
2022-08-02T12:08:37.623Z,32.11
2022-08-02T12:09:41.295Z,32.10
2022-08-02T12:10:51.159Z,32.26
2022-08-02T12:11:52.985Z,32.43
2022-08-02T12:12:56.158Z,32.45
2022-08-02T12:13:57.748Z,32.64
2022-08-02T12:14:59.444Z,32.82
2022-08-02T12:16:11.073Z,32.88
2022-08-02T12:17:12.584Z,32.73
2022-08-02T12:18:15.468Z,32.77
2022-08-02T12:19:17.081Z,32.78
2022-08-02T12:20:18.635Z,32.80
2022-08-02T12:21:25.079Z,33.03
2022-08-02T12:22:28.000Z,33.18
2022-08-02T12:23:30.176Z,32.79
2022-08-02T12:24:31.721Z,32.48
2022-08-02T12:25:35.072Z,32.45
2022-08-02T12:26:48.226Z,32.47
2022-08-02T12:27:53.396Z,32.59
2022-08-02T12:28:57.864Z,32.73
2022-08-02T12:30:06.941Z,32.89
2022-08-02T12:31:10.450Z,32.68
2022-08-02T12:32:24.078Z,32.43
2022-08-02T12:33:29.040Z,32.45
2022-08-02T12:34:33.214Z,32.41
2022-08-02T12:35:35.059Z,32.38
2022-08-02T12:36:37.653Z,32.50
2022-08-02T12:37:45.125Z,32.61
2022-08-02T12:38:54.371Z,32.84
2022-08-02T12:39:55.895Z,32.97
2022-08-02T12:41:31.500Z,33.02
2022-08-02T12:42:49.990Z,32.96
2022-08-02T12:43:52.052Z,33.04
2022-08-02T12:44:58.181Z,33.00
2022-08-02T12:45:59.668Z,33.07
2022-08-02T12:47:10.053Z,33.11
2022-08-02T12:48:11.864Z,33.35
2022-08-02T12:49:21.077Z,33.47
2022-08-02T12:50:31.896Z,33.45
2022-08-02T12:51:56.327Z,33.45
2022-08-02T12:53:03.982Z,33.40
2022-08-02T12:54:18.472Z,33.34
2022-08-02T12:55:25.255Z,33.09
2022-08-02T12:56:31.488Z,32.72
2022-08-02T12:57:33.358Z,32.45
2022-08-02T12:58:51.459Z,32.53
2022-08-02T12:59:53.835Z,32.74
2022-08-02T13:00:58.706Z,32.62
2022-08-02T13:02:05.558Z,32.77
2022-08-02T13:04:09.753Z,32.88
2022-08-02T13:04:29.705Z,32.88
2022-08-02T13:05:56.031Z,32.89
2022-08-02T13:06:55.542Z,33.03
2022-08-02T13:07:58.977Z,33.06
2022-08-02T13:09:01.408Z,33.10
2022-08-02T13:10:03.800Z,33.31
2022-08-02T13:11:05.824Z,33.35
2022-08-02T13:12:08.318Z,33.46
2022-08-02T13:13:10.429Z,33.55
2022-08-02T13:14:13.955Z,33.56
2022-08-02T13:15:48.876Z,33.59
2022-08-02T13:16:37.692Z,33.58
2022-08-02T13:17:39.429Z,33.57
2022-08-02T13:18:41.436Z,33.59
2022-08-02T13:19:42.938Z,33.74
2022-08-02T13:20:45.629Z,33.88
2022-08-02T13:22:02.751Z,33.60
2022-08-02T13:23:08.215Z,33.74
2022-08-02T13:24:39.238Z,33.63
2022-08-02T13:25:43.260Z,33.75
2022-08-02T13:26:45.619Z,33.94
2022-08-02T13:27:47.126Z,33.92
2022-08-02T13:28:48.769Z,34.17
2022-08-02T13:29:51.220Z,34.28
2022-08-02T13:30:53.152Z,34.21
2022-08-02T13:31:54.676Z,34.16
2022-08-02T13:33:00.834Z,34.05
2022-08-02T13:34:06.961Z,33.89
2022-08-02T13:35:08.498Z,33.90
2022-08-02T13:36:19.572Z,33.53
2022-08-02T13:37:21.439Z,33.58
2022-08-02T13:38:25.002Z,33.45
2022-08-02T13:39:26.798Z,33.23
2022-08-02T13:40:43.711Z,33.34
2022-08-02T13:41:49.855Z,33.51
2022-08-02T13:42:51.491Z,33.13
2022-08-02T13:43:57.143Z,33.19
2022-08-02T13:45:12.670Z,33.47
2022-08-02T13:46:16.009Z,33.67
2022-08-02T13:47:36.391Z,33.69
2022-08-02T13:48:51.892Z,33.78
2022-08-02T13:49:53.518Z,33.70
2022-08-02T13:50:55.101Z,33.50
2022-08-02T13:51:56.616Z,33.33
2022-08-02T13:52:58.102Z,33.41
2022-08-02T13:53:59.652Z,33.45
2022-08-02T13:55:01.372Z,33.59
2022-08-02T13:56:03.200Z,33.69
2022-08-02T13:57:05.011Z,33.90
2022-08-02T13:58:06.579Z,33.74
2022-08-02T13:59:54.355Z,33.88
2022-08-02T14:00:35.066Z,34.19
2022-08-02T14:01:37.893Z,34.39
2022-08-02T14:02:40.580Z,34.38
2022-08-02T14:04:08.093Z,34.57
2022-08-02T14:05:04.535Z,34.60
2022-08-02T14:06:06.071Z,34.66
2022-08-02T14:07:07.553Z,34.74